sensor_id;sensor_type;location;lat;lon;timestamp;temperature;humidity
80274;DHT22;69576;51.902;-8.462;2023-04-24T00:00:55;13.30;65.40
80274;DHT22;69576;51.902;-8.462;2023-04-24T00:03:26;13.30;65.10
80274;DHT22;69576;51.902;-8.462;2023-04-24T00:05:54;13.30;65.00
80274;DHT22;69576;51.902;-8.462;2023-04-24T00:08:19;13.30;65.00
80274;DHT22;69576;51.902;-8.462;2023-04-24T00:10:45;13.30;65.00
80274;DHT22;69576;51.902;-8.462;2023-04-24T00:13:14;13.30;65.00
80274;DHT22;69576;51.902;-8.462;2023-04-24T00:15:40;13.30;65.00
80274;DHT22;69576;51.902;-8.462;2023-04-24T00:18:05;13.30;65.00
80274;DHT22;69576;51.902;-8.462;2023-04-24T00:20:31;13.30;65.00
80274;DHT22;69576;51.902;-8.462;2023-04-24T00:23:00;13.30;65.00
80274;DHT22;69576;51.902;-8.462;2023-04-24T00:25:26;13.30;65.10
80274;DHT22;69576;51.902;-8.462;2023-04-24T00:27:52;13.30;65.20
80274;DHT22;69576;51.902;-8.462;2023-04-24T00:30:20;13.20;65.20
80274;DHT22;69576;51.902;-8.462;2023-04-24T00:32:46;13.20;65.00
80274;DHT22;69576;51.902;-8.462;2023-04-24T00:35:11;13.20;65.10
80274;DHT22;69576;51.902;-8.462;2023-04-24T00:37:39;13.20;65.30
80274;DHT22;69576;51.902;-8.462;2023-04-24T00:40:06;13.20;65.00
80274;DHT22;69576;51.902;-8.462;2023-04-24T00:42:32;13.20;65.20
80274;DHT22;69576;51.902;-8.462;2023-04-24T00:44:58;13.10;65.10
80274;DHT22;69576;51.902;-8.462;2023-04-24T00:47:28;13.10;65.20
80274;DHT22;69576;51.902;-8.462;2023-04-24T00:49:55;13.10;65.10
80274;DHT22;69576;51.902;-8.462;2023-04-24T00:52:21;13.10;65.40
80274;DHT22;69576;51.902;-8.462;2023-04-24T00:54:49;13.10;65.50
80274;DHT22;69576;51.902;-8.462;2023-04-24T00:57:15;13.10;65.40
80274;DHT22;69576;51.902;-8.462;2023-04-24T00:59:42;13.10;66.20
80274;DHT22;69576;51.902;-8.462;2023-04-24T01:02:09;13.10;65.70
80274;DHT22;69576;51.902;-8.462;2023-04-24T01:04:36;13.10;65.60
80274;DHT22;69576;51.902;-8.462;2023-04-24T01:07:03;13.10;65.60
80274;DHT22;69576;51.902;-8.462;2023-04-24T01:09:30;13.10;65.50
80274;DHT22;69576;51.902;-8.462;2023-04-24T01:11:55;13.10;65.60
80274;DHT22;69576;51.902;-8.462;2023-04-24T01:14:22;13.10;66.20
80274;DHT22;69576;51.902;-8.462;2023-04-24T01:16:50;13.10;66.40
80274;DHT22;69576;51.902;-8.462;2023-04-24T01:19:18;13.10;65.70
80274;DHT22;69576;51.902;-8.462;2023-04-24T01:21:45;13.10;66.00
80274;DHT22;69576;51.902;-8.462;2023-04-24T01:24:12;13.10;65.70
80274;DHT22;69576;51.902;-8.462;2023-04-24T01:26:38;13.10;66.00
80274;DHT22;69576;51.902;-8.462;2023-04-24T01:29:04;13.10;65.60
80274;DHT22;69576;51.902;-8.462;2023-04-24T01:31:30;13.00;65.50
80274;DHT22;69576;51.902;-8.462;2023-04-24T01:33:56;13.00;65.90
80274;DHT22;69576;51.902;-8.462;2023-04-24T01:36:22;13.00;65.80
80274;DHT22;69576;51.902;-8.462;2023-04-24T01:38:52;13.00;65.80
80274;DHT22;69576;51.902;-8.462;2023-04-24T01:41:18;13.00;66.50
80274;DHT22;69576;51.902;-8.462;2023-04-24T01:43:45;13.00;66.20
80274;DHT22;69576;51.902;-8.462;2023-04-24T01:46:13;13.00;66.50
80274;DHT22;69576;51.902;-8.462;2023-04-24T01:48:40;13.00;66.40
80274;DHT22;69576;51.902;-8.462;2023-04-24T01:51:06;13.00;66.40
80274;DHT22;69576;51.902;-8.462;2023-04-24T01:53:32;13.00;66.20
80274;DHT22;69576;51.902;-8.462;2023-04-24T01:55:58;13.00;66.20
80274;DHT22;69576;51.902;-8.462;2023-04-24T01:58:24;13.00;66.20
80274;DHT22;69576;51.902;-8.462;2023-04-24T02:00:50;13.00;66.20
80274;DHT22;69576;51.902;-8.462;2023-04-24T02:03:15;13.00;66.20
80274;DHT22;69576;51.902;-8.462;2023-04-24T02:05:44;13.00;66.10
80274;DHT22;69576;51.902;-8.462;2023-04-24T02:08:10;13.00;66.20
80274;DHT22;69576;51.902;-8.462;2023-04-24T02:10:38;13.00;66.20
80274;DHT22;69576;51.902;-8.462;2023-04-24T02:13:07;13.00;66.10
80274;DHT22;69576;51.902;-8.462;2023-04-24T02:15:32;13.00;66.20
80274;DHT22;69576;51.902;-8.462;2023-04-24T02:18:01;13.00;66.10
80274;DHT22;69576;51.902;-8.462;2023-04-24T02:20:27;13.10;66.40
80274;DHT22;69576;51.902;-8.462;2023-04-24T02:22:53;13.00;66.00
80274;DHT22;69576;51.902;-8.462;2023-04-24T02:25:21;13.10;66.20
80274;DHT22;69576;51.902;-8.462;2023-04-24T02:27:47;13.00;66.20
80274;DHT22;69576;51.902;-8.462;2023-04-24T02:30:13;13.00;66.20
80274;DHT22;69576;51.902;-8.462;2023-04-24T02:32:38;13.10;66.30
80274;DHT22;69576;51.902;-8.462;2023-04-24T02:35:05;13.10;66.90
80274;DHT22;69576;51.902;-8.462;2023-04-24T02:37:31;13.10;66.80
80274;DHT22;69576;51.902;-8.462;2023-04-24T02:39:57;13.10;66.50
80274;DHT22;69576;51.902;-8.462;2023-04-24T02:42:22;13.10;67.00
80274;DHT22;69576;51.902;-8.462;2023-04-24T02:44:48;13.10;66.40
80274;DHT22;69576;51.902;-8.462;2023-04-24T02:47:14;13.10;66.50
80274;DHT22;69576;51.902;-8.462;2023-04-24T02:49:39;13.10;66.10
80274;DHT22;69576;51.902;-8.462;2023-04-24T02:52:05;13.10;66.30
80274;DHT22;69576;51.902;-8.462;2023-04-24T02:54:31;13.10;66.30
80274;DHT22;69576;51.902;-8.462;2023-04-24T02:56:57;13.10;66.20
80274;DHT22;69576;51.902;-8.462;2023-04-24T02:59:22;13.00;66.10
80274;DHT22;69576;51.902;-8.462;2023-04-24T03:01:52;13.10;66.20
80274;DHT22;69576;51.902;-8.462;2023-04-24T03:04:18;13.00;66.30
80274;DHT22;69576;51.902;-8.462;2023-04-24T03:06:45;13.00;66.40
80274;DHT22;69576;51.902;-8.462;2023-04-24T03:09:11;13.10;66.50
80274;DHT22;69576;51.902;-8.462;2023-04-24T03:11:37;13.10;66.60
80274;DHT22;69576;51.902;-8.462;2023-04-24T03:14:02;13.10;66.60
80274;DHT22;69576;51.902;-8.462;2023-04-24T03:16:28;13.10;66.50
80274;DHT22;69576;51.902;-8.462;2023-04-24T03:18:56;13.10;66.40
80274;DHT22;69576;51.902;-8.462;2023-04-24T03:21:25;13.10;66.60
80274;DHT22;69576;51.902;-8.462;2023-04-24T03:23:52;13.10;66.50
80274;DHT22;69576;51.902;-8.462;2023-04-24T03:26:17;13.10;66.50
80274;DHT22;69576;51.902;-8.462;2023-04-24T03:28:43;13.10;66.50
80274;DHT22;69576;51.902;-8.462;2023-04-24T03:31:11;13.10;66.60
80274;DHT22;69576;51.902;-8.462;2023-04-24T03:33:39;13.10;66.40
80274;DHT22;69576;51.902;-8.462;2023-04-24T03:36:05;13.00;66.50
80274;DHT22;69576;51.902;-8.462;2023-04-24T03:38:31;13.00;66.50
80274;DHT22;69576;51.902;-8.462;2023-04-24T03:40:57;13.00;66.20
80274;DHT22;69576;51.902;-8.462;2023-04-24T03:43:22;13.00;66.40
80274;DHT22;69576;51.902;-8.462;2023-04-24T03:45:48;13.00;66.40
80274;DHT22;69576;51.902;-8.462;2023-04-24T03:48:14;13.00;66.50
80274;DHT22;69576;51.902;-8.462;2023-04-24T03:50:42;13.00;66.50
80274;DHT22;69576;51.902;-8.462;2023-04-24T03:53:07;13.00;66.40
80274;DHT22;69576;51.902;-8.462;2023-04-24T03:55:33;13.00;66.50
80274;DHT22;69576;51.902;-8.462;2023-04-24T03:57:59;13.10;66.70
80274;DHT22;69576;51.902;-8.462;2023-04-24T04:00:25;13.10;66.90
80274;DHT22;69576;51.902;-8.462;2023-04-24T04:02:51;13.10;66.70
80274;DHT22;69576;51.902;-8.462;2023-04-24T04:05:20;13.10;66.80
80274;DHT22;69576;51.902;-8.462;2023-04-24T04:07:46;13.10;66.70
80274;DHT22;69576;51.902;-8.462;2023-04-24T04:10:11;13.10;66.60
80274;DHT22;69576;51.902;-8.462;2023-04-24T04:12:40;13.10;66.70
80274;DHT22;69576;51.902;-8.462;2023-04-24T04:15:08;13.00;66.60
80274;DHT22;69576;51.902;-8.462;2023-04-24T04:17:34;13.10;66.60
80274;DHT22;69576;51.902;-8.462;2023-04-24T04:20:00;13.00;66.70
80274;DHT22;69576;51.902;-8.462;2023-04-24T04:22:28;13.10;66.70
80274;DHT22;69576;51.902;-8.462;2023-04-24T04:24:54;13.00;66.60
80274;DHT22;69576;51.902;-8.462;2023-04-24T04:27:20;13.10;67.00
80274;DHT22;69576;51.902;-8.462;2023-04-24T04:29:48;13.00;67.00
80274;DHT22;69576;51.902;-8.462;2023-04-24T04:32:13;13.10;66.70
80274;DHT22;69576;51.902;-8.462;2023-04-24T04:34:40;13.00;66.80
80274;DHT22;69576;51.902;-8.462;2023-04-24T04:37:06;13.00;66.60
80274;DHT22;69576;51.902;-8.462;2023-04-24T04:39:32;13.00;67.00
80274;DHT22;69576;51.902;-8.462;2023-04-24T04:42:00;13.00;67.30
80274;DHT22;69576;51.902;-8.462;2023-04-24T04:44:25;13.10;67.20
80274;DHT22;69576;51.902;-8.462;2023-04-24T04:46:53;13.00;67.00
80274;DHT22;69576;51.902;-8.462;2023-04-24T04:49:21;13.00;66.70
80274;DHT22;69576;51.902;-8.462;2023-04-24T04:51:49;13.00;67.00
80274;DHT22;69576;51.902;-8.462;2023-04-24T04:54:16;13.00;66.70
80274;DHT22;69576;51.902;-8.462;2023-04-24T04:56:42;13.00;66.60
80274;DHT22;69576;51.902;-8.462;2023-04-24T04:59:07;13.00;66.60
80274;DHT22;69576;51.902;-8.462;2023-04-24T05:01:33;12.90;67.10
80274;DHT22;69576;51.902;-8.462;2023-04-24T05:04:01;12.90;66.90
80274;DHT22;69576;51.902;-8.462;2023-04-24T05:06:27;12.90;67.00
80274;DHT22;69576;51.902;-8.462;2023-04-24T05:08:55;12.90;67.10
80274;DHT22;69576;51.902;-8.462;2023-04-24T05:11:23;12.90;67.00
80274;DHT22;69576;51.902;-8.462;2023-04-24T05:13:48;12.80;66.90
80274;DHT22;69576;51.902;-8.462;2023-04-24T05:16:14;12.80;66.80
80274;DHT22;69576;51.902;-8.462;2023-04-24T05:18:40;12.80;66.80
80274;DHT22;69576;51.902;-8.462;2023-04-24T05:21:06;12.80;66.80
80274;DHT22;69576;51.902;-8.462;2023-04-24T05:23:32;12.80;67.00
80274;DHT22;69576;51.902;-8.462;2023-04-24T05:25:57;12.70;66.80
80274;DHT22;69576;51.902;-8.462;2023-04-24T05:28:26;12.70;66.70
80274;DHT22;69576;51.902;-8.462;2023-04-24T05:30:55;12.70;66.70
80274;DHT22;69576;51.902;-8.462;2023-04-24T05:33:21;12.70;67.10
80274;DHT22;69576;51.902;-8.462;2023-04-24T05:35:50;12.70;66.50
80274;DHT22;69576;51.902;-8.462;2023-04-24T05:38:16;12.60;66.60
80274;DHT22;69576;51.902;-8.462;2023-04-24T05:40:45;12.60;66.70
80274;DHT22;69576;51.902;-8.462;2023-04-24T05:43:14;12.60;66.90
80274;DHT22;69576;51.902;-8.462;2023-04-24T05:45:39;12.60;67.10
80274;DHT22;69576;51.902;-8.462;2023-04-24T05:48:05;12.60;66.90
80274;DHT22;69576;51.902;-8.462;2023-04-24T05:50:31;12.60;66.90
80274;DHT22;69576;51.902;-8.462;2023-04-24T05:52:57;12.60;66.80
80274;DHT22;69576;51.902;-8.462;2023-04-24T05:55:27;12.60;66.90
80274;DHT22;69576;51.902;-8.462;2023-04-24T05:57:53;12.60;66.90
80274;DHT22;69576;51.902;-8.462;2023-04-24T06:00:20;12.60;66.90
80274;DHT22;69576;51.902;-8.462;2023-04-24T06:02:46;12.60;67.00
80274;DHT22;69576;51.902;-8.462;2023-04-24T06:05:12;12.70;67.10
80274;DHT22;69576;51.902;-8.462;2023-04-24T06:07:38;12.70;67.50
80274;DHT22;69576;51.902;-8.462;2023-04-24T06:10:04;12.70;67.10
80274;DHT22;69576;51.902;-8.462;2023-04-24T06:12:30;12.70;67.20
80274;DHT22;69576;51.902;-8.462;2023-04-24T06:14:56;12.80;67.50
80274;DHT22;69576;51.902;-8.462;2023-04-24T06:17:22;12.90;67.60
80274;DHT22;69576;51.902;-8.462;2023-04-24T06:19:51;13.00;67.00
80274;DHT22;69576;51.902;-8.462;2023-04-24T06:22:17;13.00;66.80
80274;DHT22;69576;51.902;-8.462;2023-04-24T06:24:43;13.00;66.70
80274;DHT22;69576;51.902;-8.462;2023-04-24T06:27:09;13.00;66.50
80274;DHT22;69576;51.902;-8.462;2023-04-24T06:29:36;13.00;66.20
80274;DHT22;69576;51.902;-8.462;2023-04-24T06:32:02;13.00;66.60
80274;DHT22;69576;51.902;-8.462;2023-04-24T06:34:30;13.00;66.20
80274;DHT22;69576;51.902;-8.462;2023-04-24T06:36:58;13.00;66.60
80274;DHT22;69576;51.902;-8.462;2023-04-24T06:39:26;13.10;66.60
80274;DHT22;69576;51.902;-8.462;2023-04-24T06:41:52;13.10;66.60
80274;DHT22;69576;51.902;-8.462;2023-04-24T06:44:18;13.10;66.60
80274;DHT22;69576;51.902;-8.462;2023-04-24T06:46:43;13.10;66.70
80274;DHT22;69576;51.902;-8.462;2023-04-24T06:49:09;13.10;66.80
80274;DHT22;69576;51.902;-8.462;2023-04-24T06:51:37;13.10;66.80
80274;DHT22;69576;51.902;-8.462;2023-04-24T06:54:03;13.20;67.00
80274;DHT22;69576;51.902;-8.462;2023-04-24T06:56:29;13.20;66.80
80274;DHT22;69576;51.902;-8.462;2023-04-24T06:58:55;13.30;66.90
80274;DHT22;69576;51.902;-8.462;2023-04-24T07:01:23;13.30;66.70
80274;DHT22;69576;51.902;-8.462;2023-04-24T07:03:49;13.30;66.20
80274;DHT22;69576;51.902;-8.462;2023-04-24T07:06:17;13.30;66.30
80274;DHT22;69576;51.902;-8.462;2023-04-24T07:08:44;13.30;66.60
80274;DHT22;69576;51.902;-8.462;2023-04-24T07:11:10;13.40;66.70
80274;DHT22;69576;51.902;-8.462;2023-04-24T07:13:35;13.50;66.50
80274;DHT22;69576;51.902;-8.462;2023-04-24T07:16:01;13.50;66.30
80274;DHT22;69576;51.902;-8.462;2023-04-24T07:18:29;13.50;66.50
80274;DHT22;69576;51.902;-8.462;2023-04-24T07:20:55;13.50;66.40
80274;DHT22;69576;51.902;-8.462;2023-04-24T07:23:21;13.60;65.90
80274;DHT22;69576;51.902;-8.462;2023-04-24T07:25:47;13.50;65.40
80274;DHT22;69576;51.902;-8.462;2023-04-24T07:28:15;13.50;65.80
80274;DHT22;69576;51.902;-8.462;2023-04-24T07:30:43;13.60;65.80
80274;DHT22;69576;51.902;-8.462;2023-04-24T07:33:09;13.60;65.90
80274;DHT22;69576;51.902;-8.462;2023-04-24T07:35:38;13.60;66.20
80274;DHT22;69576;51.902;-8.462;2023-04-24T07:38:04;13.70;65.80
80274;DHT22;69576;51.902;-8.462;2023-04-24T07:40:30;13.70;65.60
80274;DHT22;69576;51.902;-8.462;2023-04-24T07:42:56;13.70;65.60
80274;DHT22;69576;51.902;-8.462;2023-04-24T07:45:21;13.70;65.40
80274;DHT22;69576;51.902;-8.462;2023-04-24T07:47:49;13.70;65.40
80274;DHT22;69576;51.902;-8.462;2023-04-24T07:50:16;13.70;65.30
80274;DHT22;69576;51.902;-8.462;2023-04-24T07:52:41;13.70;65.40
80274;DHT22;69576;51.902;-8.462;2023-04-24T07:55:07;13.70;65.00
80274;DHT22;69576;51.902;-8.462;2023-04-24T07:57:36;13.70;65.40
80274;DHT22;69576;51.902;-8.462;2023-04-24T08:00:03;13.80;65.40
80274;DHT22;69576;51.902;-8.462;2023-04-24T08:02:29;13.80;65.10
80274;DHT22;69576;51.902;-8.462;2023-04-24T08:04:55;13.80;64.80
80274;DHT22;69576;51.902;-8.462;2023-04-24T08:07:21;13.80;64.80
80274;DHT22;69576;51.902;-8.462;2023-04-24T08:09:47;13.90;65.20
80274;DHT22;69576;51.902;-8.462;2023-04-24T08:12:12;13.90;64.80
80274;DHT22;69576;51.902;-8.462;2023-04-24T08:14:40;13.90;65.10
80274;DHT22;69576;51.902;-8.462;2023-04-24T08:17:06;13.90;64.90
80274;DHT22;69576;51.902;-8.462;2023-04-24T08:19:32;14.00;64.70
80274;DHT22;69576;51.902;-8.462;2023-04-24T08:21:58;14.10;64.70
80274;DHT22;69576;51.902;-8.462;2023-04-24T08:24:26;14.20;64.50
80274;DHT22;69576;51.902;-8.462;2023-04-24T08:26:54;14.30;64.40
80274;DHT22;69576;51.902;-8.462;2023-04-24T08:29:22;14.40;64.60
80274;DHT22;69576;51.902;-8.462;2023-04-24T08:31:47;14.50;64.70
80274;DHT22;69576;51.902;-8.462;2023-04-24T08:34:13;14.50;65.00
80274;DHT22;69576;51.902;-8.462;2023-04-24T08:36:39;14.40;64.20
80274;DHT22;69576;51.902;-8.462;2023-04-24T08:39:06;14.40;64.10
80274;DHT22;69576;51.902;-8.462;2023-04-24T08:41:33;14.30;64.00
80274;DHT22;69576;51.902;-8.462;2023-04-24T08:44:01;14.30;63.90
80274;DHT22;69576;51.902;-8.462;2023-04-24T08:46:27;14.20;63.90
80274;DHT22;69576;51.902;-8.462;2023-04-24T08:48:56;14.20;64.20
80274;DHT22;69576;51.902;-8.462;2023-04-24T08:51:22;14.20;64.00
80274;DHT22;69576;51.902;-8.462;2023-04-24T08:53:53;14.20;64.40
80274;DHT22;69576;51.902;-8.462;2023-04-24T08:56:21;14.20;64.40
80274;DHT22;69576;51.902;-8.462;2023-04-24T08:58:53;14.20;64.30
80274;DHT22;69576;51.902;-8.462;2023-04-24T09:01:23;14.30;63.90
80274;DHT22;69576;51.902;-8.462;2023-04-24T09:03:53;14.40;64.00
80274;DHT22;69576;51.902;-8.462;2023-04-24T09:06:22;14.50;64.00
80274;DHT22;69576;51.902;-8.462;2023-04-24T09:08:50;14.60;64.10
80274;DHT22;69576;51.902;-8.462;2023-04-24T09:11:17;14.70;64.10
80274;DHT22;69576;51.902;-8.462;2023-04-24T09:13:43;14.80;64.10
80274;DHT22;69576;51.902;-8.462;2023-04-24T09:16:09;14.90;64.10
80274;DHT22;69576;51.902;-8.462;2023-04-24T09:18:35;15.00;64.20
80274;DHT22;69576;51.902;-8.462;2023-04-24T09:21:07;15.20;64.30
80274;DHT22;69576;51.902;-8.462;2023-04-24T09:23:38;15.30;64.20
80274;DHT22;69576;51.902;-8.462;2023-04-24T09:26:04;15.30;64.20
80274;DHT22;69576;51.902;-8.462;2023-04-24T09:28:32;15.30;64.10
80274;DHT22;69576;51.902;-8.462;2023-04-24T09:31:11;15.20;64.00
80274;DHT22;69576;51.902;-8.462;2023-04-24T09:33:38;15.20;64.00
80274;DHT22;69576;51.902;-8.462;2023-04-24T09:36:04;15.10;64.00
80274;DHT22;69576;51.902;-8.462;2023-04-24T09:38:36;15.00;64.30
80274;DHT22;69576;51.902;-8.462;2023-04-24T09:41:05;15.00;64.20
80274;DHT22;69576;51.902;-8.462;2023-04-24T09:43:31;15.00;64.20
80274;DHT22;69576;51.902;-8.462;2023-04-24T09:45:58;15.00;64.30
80274;DHT22;69576;51.902;-8.462;2023-04-24T09:48:35;14.90;64.20
80274;DHT22;69576;51.902;-8.462;2023-04-24T09:51:02;15.00;64.30
80274;DHT22;69576;51.902;-8.462;2023-04-24T09:53:30;15.00;64.40
80274;DHT22;69576;51.902;-8.462;2023-04-24T09:55:56;15.20;64.20
80274;DHT22;69576;51.902;-8.462;2023-04-24T09:58:28;15.40;64.00
80274;DHT22;69576;51.902;-8.462;2023-04-24T10:00:55;15.70;63.50
80274;DHT22;69576;51.902;-8.462;2023-04-24T10:03:24;16.00;63.00
80274;DHT22;69576;51.902;-8.462;2023-04-24T10:05:52;16.00;62.90
80274;DHT22;69576;51.902;-8.462;2023-04-24T10:08:19;16.00;62.70
80274;DHT22;69576;51.902;-8.462;2023-04-24T10:10:48;16.10;62.60
80274;DHT22;69576;51.902;-8.462;2023-04-24T10:13:14;16.10;62.60
80274;DHT22;69576;51.902;-8.462;2023-04-24T10:15:41;16.30;62.70
80274;DHT22;69576;51.902;-8.462;2023-04-24T10:18:08;16.30;62.50
80274;DHT22;69576;51.902;-8.462;2023-04-24T10:20:40;16.40;62.20
80274;DHT22;69576;51.902;-8.462;2023-04-24T10:23:09;16.40;62.00
80274;DHT22;69576;51.902;-8.462;2023-04-24T10:25:36;16.50;61.80
80274;DHT22;69576;51.902;-8.462;2023-04-24T10:28:05;16.60;61.80
80274;DHT22;69576;51.902;-8.462;2023-04-24T10:30:34;16.60;61.60
80274;DHT22;69576;51.902;-8.462;2023-04-24T10:33:07;16.70;61.60
80274;DHT22;69576;51.902;-8.462;2023-04-24T10:35:39;16.80;61.60
80274;DHT22;69576;51.902;-8.462;2023-04-24T10:38:09;16.70;61.30
80274;DHT22;69576;51.902;-8.462;2023-04-24T10:40:37;16.70;61.50
80274;DHT22;69576;51.902;-8.462;2023-04-24T10:43:04;16.60;61.20
80274;DHT22;69576;51.902;-8.462;2023-04-24T10:45:35;16.60;61.40
80274;DHT22;69576;51.902;-8.462;2023-04-24T10:48:08;16.50;61.30
80274;DHT22;69576;51.902;-8.462;2023-04-24T10:50:47;16.50;61.30
80274;DHT22;69576;51.902;-8.462;2023-04-24T10:53:16;16.40;61.20
80274;DHT22;69576;51.902;-8.462;2023-04-24T10:55:44;16.40;61.30
80274;DHT22;69576;51.902;-8.462;2023-04-24T10:58:13;16.40;61.40
80274;DHT22;69576;51.902;-8.462;2023-04-24T11:00:40;16.40;61.30
80274;DHT22;69576;51.902;-8.462;2023-04-24T11:08:24;16.40;61.20
80274;DHT22;69576;51.902;-8.462;2023-04-24T11:10:59;16.40;61.40
80274;DHT22;69576;51.902;-8.462;2023-04-24T11:13:27;16.40;61.20
80274;DHT22;69576;51.902;-8.462;2023-04-24T11:16:12;16.40;61.10
80274;DHT22;69576;51.902;-8.462;2023-04-24T11:18:39;16.40;61.20
80274;DHT22;69576;51.902;-8.462;2023-04-24T11:21:12;16.40;61.20
80274;DHT22;69576;51.902;-8.462;2023-04-24T11:23:39;16.40;61.30
80274;DHT22;69576;51.902;-8.462;2023-04-24T11:26:22;16.40;61.20
80274;DHT22;69576;51.902;-8.462;2023-04-24T11:28:50;16.50;61.10
80274;DHT22;69576;51.902;-8.462;2023-04-24T11:31:39;16.50;61.10
80274;DHT22;69576;51.902;-8.462;2023-04-24T11:34:10;16.40;60.90
80274;DHT22;69576;51.902;-8.462;2023-04-24T11:36:37;16.40;60.90
80274;DHT22;69576;51.902;-8.462;2023-04-24T11:39:03;16.40;60.70
80274;DHT22;69576;51.902;-8.462;2023-04-24T11:41:29;16.40;61.00
80274;DHT22;69576;51.902;-8.462;2023-04-24T11:43:56;16.40;60.90
80274;DHT22;69576;51.902;-8.462;2023-04-24T11:46:22;16.40;61.00
80274;DHT22;69576;51.902;-8.462;2023-04-24T11:48:48;16.40;61.20
80274;DHT22;69576;51.902;-8.462;2023-04-24T11:51:14;16.50;61.00
80274;DHT22;69576;51.902;-8.462;2023-04-24T11:53:40;16.50;60.50
80274;DHT22;69576;51.902;-8.462;2023-04-24T11:56:05;16.50;60.50
80274;DHT22;69576;51.902;-8.462;2023-04-24T11:58:38;16.40;60.40
80274;DHT22;69576;51.902;-8.462;2023-04-24T12:01:07;16.30;60.40
80274;DHT22;69576;51.902;-8.462;2023-04-24T12:03:32;16.20;60.50
80274;DHT22;69576;51.902;-8.462;2023-04-24T12:06:08;16.10;60.50
80274;DHT22;69576;51.902;-8.462;2023-04-24T12:08:37;16.00;60.70
80274;DHT22;69576;51.902;-8.462;2023-04-24T12:11:07;16.00;60.70
80274;DHT22;69576;51.902;-8.462;2023-04-24T12:13:33;15.90;60.70
80274;DHT22;69576;51.902;-8.462;2023-04-24T12:16:02;15.80;60.80
80274;DHT22;69576;51.902;-8.462;2023-04-24T12:18:27;15.80;60.90
80274;DHT22;69576;51.902;-8.462;2023-04-24T12:20:53;15.80;60.90
80274;DHT22;69576;51.902;-8.462;2023-04-24T12:23:35;15.80;60.80
80274;DHT22;69576;51.902;-8.462;2023-04-24T12:26:04;15.80;60.80
80274;DHT22;69576;51.902;-8.462;2023-04-24T12:28:37;15.70;60.80
80274;DHT22;69576;51.902;-8.462;2023-04-24T12:31:04;15.70;60.80
80274;DHT22;69576;51.902;-8.462;2023-04-24T12:33:35;15.60;60.80
80274;DHT22;69576;51.902;-8.462;2023-04-24T12:36:01;15.60;60.90
80274;DHT22;69576;51.902;-8.462;2023-04-24T12:38:30;15.60;60.90
80274;DHT22;69576;51.902;-8.462;2023-04-24T12:41:03;15.50;61.20
80274;DHT22;69576;51.902;-8.462;2023-04-24T12:43:32;15.50;61.20
80274;DHT22;69576;51.902;-8.462;2023-04-24T12:45:58;15.40;61.20
80274;DHT22;69576;51.902;-8.462;2023-04-24T12:48:25;15.40;61.20
80274;DHT22;69576;51.902;-8.462;2023-04-24T12:50:51;15.30;61.10
80274;DHT22;69576;51.902;-8.462;2023-04-24T12:53:20;15.30;61.10
80274;DHT22;69576;51.902;-8.462;2023-04-24T12:55:46;15.30;61.50
80274;DHT22;69576;51.902;-8.462;2023-04-24T12:58:18;15.30;61.30
80274;DHT22;69576;51.902;-8.462;2023-04-24T13:00:47;15.20;61.50
80274;DHT22;69576;51.902;-8.462;2023-04-24T13:03:14;15.20;61.50
80274;DHT22;69576;51.902;-8.462;2023-04-24T13:05:40;15.20;61.50
80274;DHT22;69576;51.902;-8.462;2023-04-24T13:08:06;15.10;61.60
80274;DHT22;69576;51.902;-8.462;2023-04-24T13:10:32;15.00;62.00
80274;DHT22;69576;51.902;-8.462;2023-04-24T13:12:57;15.00;62.00
80274;DHT22;69576;51.902;-8.462;2023-04-24T13:15:23;15.00;61.80
80274;DHT22;69576;51.902;-8.462;2023-04-24T13:17:51;15.00;62.00
80274;DHT22;69576;51.902;-8.462;2023-04-24T13:20:17;15.00;62.30
80274;DHT22;69576;51.902;-8.462;2023-04-24T13:22:43;15.00;62.00
80274;DHT22;69576;51.902;-8.462;2023-04-24T13:25:09;15.00;62.20
80274;DHT22;69576;51.902;-8.462;2023-04-24T13:27:37;15.00;62.00
80274;DHT22;69576;51.902;-8.462;2023-04-24T13:30:03;15.00;61.80
80274;DHT22;69576;51.902;-8.462;2023-04-24T13:32:29;15.00;61.80
80274;DHT22;69576;51.902;-8.462;2023-04-24T13:34:56;15.00;61.80
80274;DHT22;69576;51.902;-8.462;2023-04-24T13:37:21;15.00;61.60
80274;DHT22;69576;51.902;-8.462;2023-04-24T13:39:48;15.00;61.60
80274;DHT22;69576;51.902;-8.462;2023-04-24T13:42:16;15.00;61.60
80274;DHT22;69576;51.902;-8.462;2023-04-24T13:44:42;15.00;61.50
80274;DHT22;69576;51.902;-8.462;2023-04-24T13:47:07;14.90;61.90
80274;DHT22;69576;51.902;-8.462;2023-04-24T13:49:33;14.90;62.20
80274;DHT22;69576;51.902;-8.462;2023-04-24T13:51:59;14.90;62.30
80274;DHT22;69576;51.902;-8.462;2023-04-24T13:54:25;14.90;62.20
80274;DHT22;69576;51.902;-8.462;2023-04-24T13:56:51;14.90;62.20
80274;DHT22;69576;51.902;-8.462;2023-04-24T13:59:22;14.80;62.50
80274;DHT22;69576;51.902;-8.462;2023-04-24T14:01:48;14.80;62.60
80274;DHT22;69576;51.902;-8.462;2023-04-24T14:04:16;14.80;62.70
80274;DHT22;69576;51.902;-8.462;2023-04-24T14:06:41;14.80;62.80
80274;DHT22;69576;51.902;-8.462;2023-04-24T14:09:07;14.80;62.60
80274;DHT22;69576;51.902;-8.462;2023-04-24T14:11:34;14.80;62.60
80274;DHT22;69576;51.902;-8.462;2023-04-24T14:14:02;14.80;62.70
80274;DHT22;69576;51.902;-8.462;2023-04-24T14:16:28;14.80;62.70
80274;DHT22;69576;51.902;-8.462;2023-04-24T14:18:54;14.80;62.80
80274;DHT22;69576;51.902;-8.462;2023-04-24T14:21:20;14.80;62.90
80274;DHT22;69576;51.902;-8.462;2023-04-24T14:23:45;14.80;62.70
80274;DHT22;69576;51.902;-8.462;2023-04-24T14:26:11;14.90;62.20
80274;DHT22;69576;51.902;-8.462;2023-04-24T14:28:41;14.90;62.20
80274;DHT22;69576;51.902;-8.462;2023-04-24T14:31:07;14.90;62.10
80274;DHT22;69576;51.902;-8.462;2023-04-24T14:33:33;15.00;62.00
80274;DHT22;69576;51.902;-8.462;2023-04-24T14:35:59;15.00;61.90
80274;DHT22;69576;51.902;-8.462;2023-04-24T14:38:34;15.00;61.90
80274;DHT22;69576;51.902;-8.462;2023-04-24T14:41:00;14.90;61.90
80274;DHT22;69576;51.902;-8.462;2023-04-24T14:43:26;14.90;61.40
80274;DHT22;69576;51.902;-8.462;2023-04-24T14:45:56;14.90;61.40
80274;DHT22;69576;51.902;-8.462;2023-04-24T14:48:22;14.80;61.20
80274;DHT22;69576;51.902;-8.462;2023-04-24T14:50:50;14.90;61.20
80274;DHT22;69576;51.902;-8.462;2023-04-24T14:53:16;14.90;61.10
80274;DHT22;69576;51.902;-8.462;2023-04-24T14:55:42;14.90;61.30
80274;DHT22;69576;51.902;-8.462;2023-04-24T14:58:08;14.90;61.40
80274;DHT22;69576;51.902;-8.462;2023-04-24T15:00:33;14.90;61.50
80274;DHT22;69576;51.902;-8.462;2023-04-24T15:03:00;14.90;61.40
80274;DHT22;69576;51.902;-8.462;2023-04-24T15:05:26;14.90;61.40
80274;DHT22;69576;51.902;-8.462;2023-04-24T15:07:52;15.00;61.60
80274;DHT22;69576;51.902;-8.462;2023-04-24T15:10:18;15.00;61.80
80274;DHT22;69576;51.902;-8.462;2023-04-24T15:12:44;15.00;61.70
80274;DHT22;69576;51.902;-8.462;2023-04-24T15:15:10;15.00;61.80
80274;DHT22;69576;51.902;-8.462;2023-04-24T15:17:35;15.00;61.90
80274;DHT22;69576;51.902;-8.462;2023-04-24T15:20:01;15.00;61.90